createdAt,value
2018-05-15T00:00:49.437Z,16.17
2018-05-15T00:01:49.408Z,16.22
2018-05-15T00:02:49.385Z,16.25
2018-05-15T00:03:49.360Z,16.13
2018-05-15T00:04:49.337Z,16.18
2018-05-15T00:05:49.313Z,16.18
2018-05-15T00:06:49.291Z,16.10
2018-05-15T00:07:49.267Z,16.18
2018-05-15T00:08:49.242Z,16.13
2018-05-15T00:09:49.221Z,16.11
2018-05-15T00:10:49.195Z,16.11
2018-05-15T00:11:49.171Z,16.14
2018-05-15T00:12:49.148Z,16.11
2018-05-15T00:13:49.123Z,16.06
2018-05-15T00:14:49.100Z,15.95
2018-05-15T00:15:49.075Z,15.96
2018-05-15T00:16:49.051Z,15.99
2018-05-15T00:17:49.036Z,15.92
2018-05-15T00:18:49.006Z,15.81
2018-05-15T00:19:48.980Z,15.77
2018-05-15T00:20:48.957Z,15.78
2018-05-15T00:21:48.932Z,15.73
2018-05-15T00:22:48.909Z,15.64
2018-05-15T00:23:48.884Z,15.70
2018-05-15T00:24:48.862Z,15.71
2018-05-15T00:25:48.839Z,15.68
2018-05-15T00:26:48.818Z,15.58
2018-05-15T00:27:48.787Z,15.58
2018-05-15T00:28:48.771Z,15.53
2018-05-15T00:29:48.742Z,15.58
2018-05-15T00:30:48.722Z,15.53
2018-05-15T00:31:48.692Z,15.58
2018-05-15T00:32:48.677Z,15.53
2018-05-15T00:33:48.645Z,15.56
2018-05-15T00:34:48.620Z,15.48
2018-05-15T00:35:48.596Z,15.46
2018-05-15T00:36:48.576Z,15.48
2018-05-15T00:37:48.548Z,15.52
2018-05-15T00:38:48.527Z,15.38
2018-05-15T00:39:48.500Z,15.43
2018-05-15T00:40:48.475Z,15.51
2018-05-15T00:41:48.452Z,15.43
2018-05-15T00:42:48.427Z,15.44
2018-05-15T00:43:48.405Z,15.52
2018-05-15T00:44:48.381Z,15.49
2018-05-15T00:45:48.354Z,15.44
2018-05-15T00:46:48.338Z,15.44
2018-05-15T00:47:48.310Z,15.43
2018-05-15T00:48:48.288Z,15.44
2018-05-15T00:49:48.260Z,15.38
2018-05-15T00:50:48.234Z,15.38
2018-05-15T00:51:48.214Z,15.38
2018-05-15T00:52:48.184Z,15.34
2018-05-15T00:53:48.161Z,15.31
2018-05-15T00:54:48.138Z,15.34
2018-05-15T00:55:48.112Z,15.30
2018-05-15T00:56:48.087Z,15.30
2018-05-15T00:57:48.063Z,15.20
2018-05-15T00:58:48.042Z,15.34
2018-05-15T00:59:48.014Z,15.37
2018-05-15T01:00:48.004Z,15.18
2018-05-15T01:01:47.967Z,15.23
2018-05-15T01:02:47.974Z,15.11
2018-05-15T01:03:47.918Z,15.16
2018-05-15T01:04:47.898Z,15.11
2018-05-15T01:05:47.869Z,15.11
2018-05-15T01:06:47.845Z,15.13
2018-05-15T01:07:48.022Z,15.04
2018-05-15T01:08:47.796Z,15.01
2018-05-15T01:09:47.974Z,15.09
2018-05-15T01:10:47.748Z,15.16
2018-05-15T01:11:47.926Z,15.05
2018-05-15T01:13:30.057Z,15.27
2018-05-15T01:14:29.824Z,15.19
2018-05-15T01:15:29.801Z,15.20
2018-05-15T01:16:29.776Z,15.23
2018-05-15T01:17:29.752Z,15.18
2018-05-15T01:18:29.726Z,15.05
2018-05-15T01:19:29.703Z,15.15
2018-05-15T01:20:29.678Z,15.01
2018-05-15T01:21:29.661Z,14.97
2018-05-15T01:22:29.629Z,14.91
2018-05-15T01:23:29.609Z,15.01
2018-05-15T01:24:29.580Z,14.90
2018-05-15T01:25:29.556Z,15.04
2018-05-15T01:26:29.535Z,15.12
2018-05-15T01:27:29.507Z,15.09
2018-05-15T01:28:29.482Z,15.20
2018-05-15T01:29:29.459Z,15.20
2018-05-15T01:30:29.433Z,15.16
2018-05-15T01:31:29.410Z,15.09
2018-05-15T01:32:29.385Z,15.09
2018-05-15T01:33:29.360Z,15.03
2018-05-15T01:34:29.335Z,15.00
2018-05-15T01:35:29.317Z,15.03
2018-05-15T01:36:29.296Z,14.90
2018-05-15T01:37:29.263Z,14.95
2018-05-15T01:38:29.237Z,14.94
2018-05-15T01:39:29.215Z,14.94
2018-05-15T01:40:29.189Z,14.95
2018-05-15T01:41:29.165Z,14.95
2018-05-15T01:42:29.139Z,15.05
2018-05-15T01:43:29.116Z,14.98
2018-05-15T01:44:29.091Z,15.01
2018-05-15T01:45:29.067Z,15.05
2018-05-15T01:46:29.044Z,15.04
2018-05-15T01:47:29.018Z,15.01
2018-05-15T01:48:28.993Z,15.07
2018-05-15T01:49:28.968Z,14.95
2018-05-15T01:50:28.953Z,15.00
2018-05-15T01:51:28.932Z,15.00
2018-05-15T01:52:28.894Z,15.00
2018-05-15T01:53:28.870Z,14.93
2018-05-15T01:54:28.846Z,14.91
2018-05-15T01:55:28.822Z,14.93
2018-05-15T01:56:28.796Z,14.91
2018-05-15T01:57:28.776Z,14.95
2018-05-15T01:58:28.746Z,14.97
2018-05-15T01:59:28.722Z,14.90
2018-05-15T02:00:28.698Z,14.97
2018-05-15T02:01:28.674Z,14.87
2018-05-15T02:02:28.651Z,14.91
2018-05-15T02:03:28.625Z,14.85
2018-05-15T02:04:28.611Z,14.83
2018-05-15T02:05:28.575Z,14.83
2018-05-15T02:06:28.550Z,14.87
2018-05-15T02:07:28.532Z,14.86
2018-05-15T02:08:28.502Z,14.86
2018-05-15T02:09:28.481Z,14.82
2018-05-15T02:10:28.455Z,14.87
2018-05-15T02:11:28.427Z,14.82
2018-05-15T02:12:28.403Z,14.78
2018-05-15T02:13:28.378Z,14.85
2018-05-15T02:14:28.353Z,14.74
2018-05-15T02:15:28.331Z,14.63
2018-05-15T02:16:28.304Z,14.71
2018-05-15T02:17:28.281Z,14.63
2018-05-15T02:18:28.254Z,14.72
2018-05-15T02:19:28.233Z,14.69
2018-05-15T02:20:28.206Z,14.71
2018-05-15T02:21:28.182Z,14.64
2018-05-15T02:22:28.158Z,14.59
2018-05-15T02:23:28.132Z,14.63
2018-05-15T02:24:28.108Z,14.59
2018-05-15T02:25:28.083Z,14.64
2018-05-15T02:26:28.066Z,14.61
2018-05-15T02:27:28.033Z,14.52
2018-05-15T02:28:28.010Z,14.57
2018-05-15T02:29:27.989Z,14.48
2018-05-15T02:30:27.986Z,14.52
2018-05-15T02:31:27.937Z,14.48
2018-05-15T02:32:27.914Z,14.41
2018-05-15T02:33:27.891Z,14.45
2018-05-15T02:34:27.868Z,14.36
2018-05-15T02:35:27.840Z,14.38
2018-05-15T02:36:27.814Z,14.31
2018-05-15T02:37:27.791Z,14.34
2018-05-15T02:38:27.761Z,14.35
2018-05-15T02:39:27.738Z,14.26
2018-05-15T02:40:27.713Z,14.26
2018-05-15T02:41:27.693Z,14.24
2018-05-15T02:42:27.667Z,14.20
2018-05-15T02:43:27.639Z,14.23
2018-05-15T02:44:27.623Z,14.17
2018-05-15T02:45:27.590Z,14.11
2018-05-15T02:46:27.567Z,14.11
2018-05-15T02:47:27.539Z,13.96
2018-05-15T02:48:27.515Z,13.96
2018-05-15T02:49:27.495Z,14.06
2018-05-15T02:50:27.480Z,14.09
2018-05-15T02:51:27.440Z,14.23
2018-05-15T02:52:27.416Z,14.27
2018-05-15T02:53:27.391Z,14.23
2018-05-15T02:54:27.365Z,14.21
2018-05-15T02:55:27.340Z,14.30
2018-05-15T02:56:27.318Z,14.20
2018-05-15T02:57:27.292Z,14.24
2018-05-15T02:58:27.265Z,14.19
2018-05-15T02:59:27.241Z,14.19
2018-05-15T03:00:27.217Z,14.26
2018-05-15T03:01:27.191Z,14.23
2018-05-15T03:02:27.166Z,14.21
2018-05-15T03:03:27.146Z,14.08
2018-05-15T03:04:27.116Z,14.11
2018-05-15T03:05:27.092Z,14.19
2018-05-15T03:06:27.066Z,14.19
2018-05-15T03:07:27.042Z,14.17
2018-05-15T03:08:27.022Z,14.24
2018-05-15T03:09:27.042Z,14.27
2018-05-15T03:10:26.966Z,14.20
2018-05-15T03:11:26.943Z,14.21
2018-05-15T03:12:26.918Z,14.19
2018-05-15T03:13:26.892Z,14.17
2018-05-15T03:14:26.866Z,14.19
2018-05-15T03:15:26.842Z,14.19
2018-05-15T03:16:26.824Z,14.26
2018-05-15T03:17:26.797Z,14.23
2018-05-15T03:18:26.771Z,14.20
2018-05-15T03:19:26.747Z,14.19
2018-05-15T03:20:26.718Z,14.13
2018-05-15T03:21:26.696Z,14.24
2018-05-15T03:22:26.667Z,14.06
2018-05-15T03:23:26.642Z,14.04
2018-05-15T03:24:26.618Z,14.02
2018-05-15T03:25:26.593Z,14.04
2018-05-15T03:26:26.568Z,14.06
2018-05-15T03:27:26.546Z,14.02
2018-05-15T03:28:26.518Z,14.01
2018-05-15T03:29:26.494Z,13.96
2018-05-15T03:30:26.469Z,13.94
2018-05-15T03:31:26.455Z,13.93
2018-05-15T03:32:26.420Z,13.90
2018-05-15T03:33:26.393Z,13.98
2018-05-15T03:34:26.368Z,13.88
2018-05-15T03:35:26.350Z,13.83
2018-05-15T03:36:26.322Z,13.76
2018-05-15T03:37:26.295Z,13.87
2018-05-15T03:38:26.269Z,13.87
2018-05-15T03:39:26.244Z,13.84
2018-05-15T03:40:26.219Z,13.80
2018-05-15T03:41:26.195Z,13.73
2018-05-15T03:42:26.168Z,13.72
2018-05-15T03:43:26.144Z,13.75
2018-05-15T03:44:26.168Z,13.71
2018-05-15T03:45:26.095Z,13.84
2018-05-15T03:46:26.070Z,13.84
2018-05-15T03:47:26.044Z,13.72
2018-05-15T03:48:26.025Z,13.75
2018-05-15T03:49:25.994Z,13.79
2018-05-15T03:50:25.969Z,13.75
2018-05-15T03:51:25.947Z,13.76
2018-05-15T03:52:25.918Z,13.84
2018-05-15T03:53:25.895Z,13.91
2018-05-15T03:54:25.872Z,13.87
2018-05-15T03:55:25.844Z,14.02
2018-05-15T03:56:25.820Z,14.01
2018-05-15T03:57:25.794Z,14.09
2018-05-15T03:58:25.769Z,14.09
2018-05-15T03:59:25.745Z,14.05
2018-05-15T04:00:25.720Z,14.06
2018-05-15T04:01:25.695Z,14.19
2018-05-15T04:02:25.670Z,14.16
2018-05-15T04:03:25.646Z,14.24
2018-05-15T04:04:25.624Z,14.16
2018-05-15T04:05:25.596Z,14.24
2018-05-15T04:06:25.571Z,14.30
2018-05-15T04:07:25.547Z,14.31
2018-05-15T04:08:25.521Z,14.38
2018-05-15T04:09:25.501Z,14.49
2018-05-15T04:10:25.472Z,14.46
2018-05-15T04:11:25.448Z,14.56
2018-05-15T04:12:25.429Z,14.53
2018-05-15T04:13:25.400Z,14.60
2018-05-15T04:14:25.381Z,14.61
2018-05-15T04:15:25.350Z,14.71
2018-05-15T04:16:25.326Z,14.83
2018-05-15T04:17:25.302Z,14.85
2018-05-15T04:18:25.284Z,14.87
2018-05-15T04:19:25.280Z,14.91
2018-05-15T04:20:25.229Z,14.95
2018-05-15T04:21:25.207Z,14.90
2018-05-15T04:22:25.383Z,14.83
2018-05-15T04:23:26.167Z,14.91
2018-05-15T04:24:26.345Z,15.03
2018-05-15T04:25:25.318Z,14.97
2018-05-15T04:26:25.083Z,14.94
2018-05-15T04:27:25.059Z,14.95
2018-05-15T04:28:25.040Z,14.98
2018-05-15T04:29:25.012Z,15.11
2018-05-15T04:30:24.989Z,15.07
2018-05-15T04:31:24.962Z,15.27
2018-05-15T04:32:24.939Z,15.20
2018-05-15T04:33:24.920Z,15.34
2018-05-15T04:34:24.891Z,15.46
2018-05-15T04:35:24.925Z,15.40
2018-05-15T04:36:24.846Z,15.53
2018-05-15T04:37:24.821Z,15.60
2018-05-15T04:38:24.797Z,15.80
2018-05-15T04:39:24.784Z,15.71
2018-05-15T04:40:24.752Z,15.88
2018-05-15T04:41:24.727Z,15.85
2018-05-15T04:42:24.708Z,16.08
2018-05-15T04:43:24.710Z,16.44
2018-05-15T04:44:24.657Z,16.59
2018-05-15T04:45:24.634Z,16.85
2018-05-15T04:46:24.611Z,17.03
2018-05-15T04:47:24.588Z,17.00
2018-05-15T04:48:24.565Z,17.00
2018-05-15T04:49:24.618Z,16.88
2018-05-15T04:50:24.519Z,17.02
2018-05-15T04:51:24.497Z,17.05
2018-05-15T04:52:24.476Z,17.15
2018-05-15T04:53:24.452Z,17.32
2018-05-15T04:54:24.428Z,17.47
2018-05-15T04:55:24.406Z,17.40
2018-05-15T04:56:24.393Z,17.28
2018-05-15T04:57:24.363Z,17.40
2018-05-15T04:59:06.693Z,17.40
2018-05-15T05:00:06.722Z,17.14
2018-05-15T05:01:06.446Z,17.51
2018-05-15T05:02:06.486Z,17.81
2018-05-15T05:03:06.402Z,17.71
2018-05-15T05:04:06.388Z,17.81
2018-05-15T05:05:06.358Z,17.54
2018-05-15T05:06:06.345Z,17.35
2018-05-15T05:07:06.317Z,17.57
2018-05-15T05:08:06.302Z,17.94
2018-05-15T05:09:06.275Z,18.21
2018-05-15T05:10:06.249Z,18.01
2018-05-15T05:11:06.227Z,18.46
2018-05-15T05:12:06.204Z,18.79
2018-05-15T05:13:06.184Z,19.15
2018-05-15T05:14:06.163Z,19.01
2018-05-15T05:15:06.141Z,19.20
2018-05-15T05:16:06.121Z,19.30
2018-05-15T05:17:08.922Z,19.53
2018-05-15T05:18:06.279Z,20.13
2018-05-15T05:19:06.059Z,20.16
2018-05-15T05:20:06.035Z,19.95
2018-05-15T05:21:06.075Z,20.08
2018-05-15T05:22:05.993Z,20.34
2018-05-15T05:23:05.973Z,19.83
2018-05-15T05:24:05.953Z,19.53
2018-05-15T05:25:05.931Z,19.76
2018-05-15T05:26:05.911Z,19.78
2018-05-15T05:27:05.913Z,19.75
2018-05-15T05:28:05.869Z,19.90
2018-05-15T05:29:05.851Z,19.86
2018-05-15T05:30:05.833Z,19.62
2018-05-15T05:31:05.809Z,20.13
2018-05-15T05:32:05.788Z,20.50
2018-05-15T05:33:05.769Z,20.85
2018-05-15T05:34:05.755Z,20.05
2018-05-15T05:35:05.728Z,20.48
2018-05-15T05:36:05.708Z,20.79
2018-05-15T05:37:05.689Z,20.48
2018-05-15T05:38:05.669Z,20.01
2018-05-15T05:39:05.653Z,20.12
2018-05-15T05:40:05.677Z,19.68
2018-05-15T05:41:05.610Z,19.38
2018-05-15T05:42:05.625Z,19.25
2018-05-15T05:43:05.570Z,19.70
2018-05-15T05:44:05.550Z,20.05
2018-05-15T05:45:05.532Z,19.75
2018-05-15T05:46:05.720Z,20.01
2018-05-15T05:47:05.493Z,20.30
2018-05-15T05:48:05.473Z,20.07
2018-05-15T05:49:05.454Z,19.79
2018-05-15T05:50:05.437Z,19.82
2018-05-15T05:51:05.424Z,20.31
2018-05-15T05:52:05.627Z,20.35
2018-05-15T05:53:05.379Z,21.00
2018-05-15T05:54:05.363Z,21.48
2018-05-15T05:55:05.343Z,21.40
2018-05-15T05:56:05.321Z,21.43
2018-05-15T05:57:05.312Z,21.08
2018-05-15T05:58:05.287Z,21.40
2018-05-15T05:59:05.266Z,21.46
2018-05-15T06:00:05.248Z,21.42
2018-05-15T06:01:05.232Z,21.66
2018-05-15T06:02:05.214Z,22.19
2018-05-15T06:03:05.192Z,22.52
2018-05-15T06:04:05.174Z,21.90
2018-05-15T06:05:05.156Z,21.58
2018-05-15T06:06:05.138Z,20.98
2018-05-15T06:07:05.123Z,21.63
2018-05-15T06:08:05.109Z,21.45
2018-05-15T06:09:05.089Z,22.01
2018-05-15T06:10:05.071Z,22.36
2018-05-15T06:11:05.053Z,22.52
2018-05-15T06:12:05.030Z,22.35
2018-05-15T06:13:05.017Z,22.76
2018-05-15T06:14:04.996Z,23.16
2018-05-15T06:15:04.978Z,23.04
2018-05-15T06:16:05.162Z,22.94
2018-05-15T06:17:05.150Z,23.03
2018-05-15T06:18:05.128Z,23.23
2018-05-15T06:19:04.909Z,23.63
2018-05-15T06:20:04.891Z,23.34
2018-05-15T06:21:04.929Z,23.62
2018-05-15T06:22:04.861Z,23.57
2018-05-15T06:23:04.850Z,23.04
2018-05-15T06:24:04.823Z,22.72
2018-05-15T06:25:04.813Z,22.93
2018-05-15T06:26:04.790Z,22.72
2018-05-15T06:27:04.774Z,22.82
2018-05-15T06:28:04.759Z,22.86
2018-05-15T06:29:04.943Z,23.39
2018-05-15T06:30:04.724Z,23.69
2018-05-15T06:31:04.708Z,24.12
2018-05-15T06:32:04.694Z,23.93
2018-05-15T06:33:04.675Z,23.92
2018-05-15T06:34:04.659Z,24.26
2018-05-15T06:35:04.643Z,23.93
2018-05-15T06:36:04.626Z,22.84
2018-05-15T06:37:06.026Z,23.25
2018-05-15T06:38:04.597Z,24.00
2018-05-15T06:39:04.581Z,23.81
2018-05-15T06:40:04.561Z,23.96
2018-05-15T06:41:04.546Z,23.41
2018-05-15T06:42:04.733Z,24.04
2018-05-15T06:43:04.514Z,24.80
2018-05-15T06:44:04.498Z,24.90
2018-05-15T06:45:04.482Z,24.44
2018-05-15T06:46:04.474Z,23.92
2018-05-15T06:47:04.457Z,24.30
2018-05-15T06:48:04.436Z,23.92
2018-05-15T06:49:05.836Z,23.77
2018-05-15T06:50:04.610Z,24.00
2018-05-15T06:51:04.389Z,24.60
2018-05-15T06:52:04.373Z,24.21
2018-05-15T06:53:04.358Z,24.31
2018-05-15T06:54:04.344Z,24.64
2018-05-15T06:55:04.329Z,24.53
2018-05-15T06:56:04.316Z,24.30
2018-05-15T06:57:04.916Z,24.87
2018-05-15T06:58:04.283Z,25.69
2018-05-15T06:59:04.269Z,25.74
2018-05-15T07:00:04.252Z,25.39
2018-05-15T07:01:04.444Z,25.27
2018-05-15T07:02:04.224Z,25.94
2018-05-15T07:03:04.209Z,25.76
2018-05-15T07:04:04.195Z,26.11
2018-05-15T07:05:04.384Z,26.13
2018-05-15T07:06:04.165Z,25.57
2018-05-15T07:07:04.151Z,25.61
2018-05-15T07:08:04.383Z,25.11
2018-05-15T07:09:04.169Z,25.54
2018-05-15T07:10:04.310Z,26.08
2018-05-15T07:11:04.296Z,25.81
2018-05-15T07:12:04.079Z,25.31
2018-05-15T07:13:04.064Z,24.93
2018-05-15T07:14:04.156Z,24.87
2018-05-15T07:15:04.268Z,24.92
2018-05-15T07:16:04.025Z,25.07
2018-05-15T07:17:04.009Z,25.29
2018-05-15T07:18:06.819Z,25.01
2018-05-15T07:19:03.981Z,24.70
2018-05-15T07:20:04.176Z,24.52
2018-05-15T07:21:04.160Z,24.56
2018-05-15T07:22:03.942Z,25.56
2018-05-15T07:23:04.131Z,26.06
2018-05-15T07:24:03.912Z,26.21
2018-05-15T07:25:03.900Z,26.44
2018-05-15T07:26:04.098Z,26.78
2018-05-15T07:27:03.871Z,26.79
2018-05-15T07:28:46.218Z,26.60
2018-05-15T07:29:46.052Z,26.90
2018-05-15T07:30:45.995Z,25.85
2018-05-15T07:31:46.179Z,26.60
2018-05-15T07:32:46.165Z,26.69
2018-05-15T07:33:45.949Z,26.35
2018-05-15T07:34:46.143Z,26.13
2018-05-15T07:35:45.922Z,25.83
2018-05-15T07:36:45.913Z,25.41
2018-05-15T07:37:45.897Z,26.35
2018-05-15T07:38:46.093Z,26.57
2018-05-15T07:39:45.870Z,26.64
2018-05-15T07:40:45.868Z,26.28
2018-05-15T07:41:45.843Z,26.11
2018-05-15T07:42:46.034Z,26.06
2018-05-15T07:43:45.818Z,26.66
2018-05-15T07:44:46.008Z,26.34
2018-05-15T07:45:45.995Z,25.69
2018-05-15T07:46:45.781Z,25.90
2018-05-15T07:47:45.776Z,25.64
2018-05-15T07:48:45.756Z,25.14
2018-05-15T07:49:45.741Z,24.80
2018-05-15T07:50:45.733Z,25.19
2018-05-15T07:51:45.728Z,25.57
2018-05-15T07:52:45.718Z,25.42
2018-05-15T07:53:45.935Z,24.94
2018-05-15T07:54:45.679Z,24.71
2018-05-15T07:55:45.678Z,25.11
2018-05-15T07:56:45.665Z,25.72
2018-05-15T07:57:45.659Z,25.97
2018-05-15T07:58:45.630Z,26.39
2018-05-15T07:59:45.618Z,26.44
2018-05-15T08:00:45.607Z,25.71
2018-05-15T08:01:45.796Z,25.64
2018-05-15T08:02:45.585Z,25.36
2018-05-15T08:03:45.575Z,26.21
2018-05-15T08:04:45.761Z,26.65
2018-05-15T08:05:45.755Z,26.41
2018-05-15T08:06:45.534Z,26.38
2018-05-15T08:07:45.568Z,26.09
2018-05-15T08:08:45.511Z,25.89
2018-05-15T08:09:45.568Z,25.79
2018-05-15T08:10:45.713Z,26.46
2018-05-15T08:11:45.473Z,26.96
2018-05-15T08:12:45.466Z,27.24
2018-05-15T08:13:45.653Z,27.91
2018-05-15T08:14:45.649Z,27.12
2018-05-15T08:15:46.439Z,27.61
2018-05-15T08:16:45.617Z,27.62
2018-05-15T08:17:45.407Z,27.48
2018-05-15T08:18:45.392Z,27.31
2018-05-15T08:19:45.592Z,27.50
2018-05-15T08:20:45.575Z,27.34
2018-05-15T08:21:45.363Z,27.31
2018-05-15T08:22:45.548Z,27.65
2018-05-15T08:23:45.400Z,27.52
2018-05-15T08:24:45.325Z,27.46
2018-05-15T08:25:45.313Z,28.25
2018-05-15T08:26:45.304Z,28.97
2018-05-15T08:27:45.500Z,28.33
2018-05-15T08:28:45.283Z,27.62
2018-05-15T08:29:45.274Z,28.18
2018-05-15T08:30:45.270Z,29.23
2018-05-15T08:31:45.249Z,29.41
2018-05-15T08:32:45.242Z,29.51
2018-05-15T08:33:45.318Z,28.58
2018-05-15T08:34:45.216Z,28.60
2018-05-15T08:35:45.226Z,28.62
2018-05-15T08:36:45.410Z,28.35
2018-05-15T08:37:45.206Z,27.99
2018-05-15T08:38:45.175Z,27.15
2018-05-15T08:39:45.171Z,27.48
2018-05-15T08:40:45.157Z,27.39
2018-05-15T08:41:45.143Z,28.11
2018-05-15T08:42:45.134Z,27.98
2018-05-15T08:43:45.141Z,26.78
2018-05-15T08:44:45.114Z,25.69
2018-05-15T08:45:45.103Z,25.56
2018-05-15T08:46:45.093Z,24.61
2018-05-15T08:47:45.084Z,24.06
2018-05-15T08:48:45.073Z,24.41
2018-05-15T08:49:45.100Z,25.41
2018-05-15T08:50:45.136Z,24.89
2018-05-15T08:51:45.042Z,26.09
2018-05-15T08:52:45.032Z,26.90
2018-05-15T08:53:45.020Z,26.87
2018-05-15T08:54:45.010Z,26.36
2018-05-15T08:55:44.999Z,25.85
2018-05-15T08:56:44.996Z,25.44
2018-05-15T08:57:44.977Z,26.23
2018-05-15T08:58:44.979Z,25.11
2018-05-15T08:59:44.961Z,24.51
2018-05-15T09:00:44.975Z,24.37
2018-05-15T09:01:44.947Z,25.38
2018-05-15T09:02:44.979Z,25.96
2018-05-15T09:03:44.929Z,26.21
2018-05-15T09:04:44.908Z,26.90
2018-05-15T09:05:44.903Z,26.24
2018-05-15T09:06:44.883Z,25.69
2018-05-15T09:07:44.868Z,25.75
2018-05-15T09:08:44.890Z,26.27
2018-05-15T09:09:44.845Z,27.15
2018-05-15T09:10:44.845Z,27.66
2018-05-15T09:11:44.850Z,26.31
2018-05-15T09:12:44.822Z,26.44
2018-05-15T09:13:44.804Z,26.96
2018-05-15T09:14:44.797Z,27.25
2018-05-15T09:15:44.788Z,26.93
2018-05-15T09:16:44.769Z,26.42
2018-05-15T09:17:44.759Z,26.76
2018-05-15T09:18:44.747Z,27.09
2018-05-15T09:19:44.750Z,27.49
2018-05-15T09:20:44.725Z,27.81
2018-05-15T09:21:44.716Z,27.40
2018-05-15T09:22:44.708Z,27.35
2018-05-15T09:23:44.693Z,27.15
2018-05-15T09:24:44.683Z,26.97
2018-05-15T09:25:44.688Z,27.80
2018-05-15T09:26:44.663Z,28.13
2018-05-15T09:27:44.654Z,28.40
2018-05-15T09:28:44.644Z,28.65
2018-05-15T09:29:44.636Z,29.41
2018-05-15T09:30:44.622Z,30.22
2018-05-15T09:31:44.613Z,30.21
2018-05-15T09:32:44.652Z,28.61
2018-05-15T09:33:44.595Z,28.85
2018-05-15T09:34:44.581Z,29.27
2018-05-15T09:35:44.578Z,29.15
2018-05-15T09:36:44.567Z,28.65
2018-05-15T09:37:44.560Z,27.50
2018-05-15T09:38:44.543Z,27.69
2018-05-15T09:39:44.535Z,27.20
2018-05-15T09:40:44.546Z,27.39
2018-05-15T09:41:44.517Z,27.31
2018-05-15T09:42:44.519Z,27.81
2018-05-15T09:43:44.496Z,26.78
2018-05-15T09:44:44.499Z,25.74
2018-05-15T09:45:44.515Z,26.08
2018-05-15T09:46:44.478Z,26.93
2018-05-15T09:47:44.482Z,27.78
2018-05-15T09:48:44.449Z,28.94
2018-05-15T09:49:44.438Z,27.80
2018-05-15T09:50:44.466Z,28.45
2018-05-15T09:51:44.424Z,27.62
2018-05-15T09:52:44.410Z,27.35
2018-05-15T09:53:44.405Z,27.08
2018-05-15T09:54:44.391Z,26.68
2018-05-15T09:55:44.383Z,27.21
2018-05-15T09:56:44.372Z,26.86
2018-05-15T09:57:44.361Z,27.38
2018-05-15T09:58:44.357Z,27.59
2018-05-15T09:59:44.347Z,27.50
2018-05-15T10:00:44.333Z,27.35
2018-05-15T10:01:44.325Z,27.03
2018-05-15T10:02:44.313Z,27.01
2018-05-15T10:03:44.303Z,27.15
2018-05-15T10:04:44.293Z,27.08
2018-05-15T10:05:44.283Z,26.59
2018-05-15T10:06:44.277Z,26.51
2018-05-15T10:07:44.330Z,27.30
2018-05-15T10:08:44.252Z,27.98
2018-05-15T10:09:44.245Z,28.11
2018-05-15T10:10:44.238Z,27.24
2018-05-15T10:11:44.234Z,26.84
2018-05-15T10:12:44.214Z,27.15
2018-05-15T10:13:44.200Z,26.53
2018-05-15T10:14:44.192Z,26.76
2018-05-15T10:15:44.181Z,27.50
2018-05-15T10:16:44.176Z,27.43
2018-05-15T10:17:44.160Z,27.80
2018-05-15T10:18:44.149Z,28.11
2018-05-15T10:19:44.142Z,27.91
2018-05-15T10:20:44.135Z,27.35
2018-05-15T10:21:44.119Z,27.72
2018-05-15T10:22:44.117Z,28.06
2018-05-15T10:23:44.099Z,28.23
2018-05-15T10:24:44.093Z,28.97
2018-05-15T10:25:44.080Z,29.08
2018-05-15T10:26:44.079Z,29.74
2018-05-15T10:27:44.060Z,29.62
2018-05-15T10:28:44.067Z,27.39
2018-05-15T10:29:44.043Z,26.93
2018-05-15T10:30:44.032Z,26.98
2018-05-15T10:31:44.022Z,26.69
2018-05-15T10:32:44.012Z,26.94
2018-05-15T10:33:44.004Z,27.58
2018-05-15T10:34:43.992Z,28.08
2018-05-15T10:35:43.984Z,29.03
2018-05-15T10:36:43.977Z,28.48
2018-05-15T10:37:43.962Z,26.96
2018-05-15T10:38:43.953Z,26.46
2018-05-15T10:39:43.943Z,25.94
2018-05-15T10:40:43.936Z,25.91
2018-05-15T10:41:43.926Z,25.63
2018-05-15T10:42:44.272Z,25.78
2018-05-15T10:43:43.907Z,26.31
2018-05-15T10:44:43.892Z,26.08
2018-05-15T10:45:43.881Z,26.57
2018-05-15T10:46:43.873Z,26.88
2018-05-15T10:47:43.863Z,27.40
2018-05-15T10:48:43.853Z,27.33
2018-05-15T10:49:43.841Z,27.61
2018-05-15T10:50:43.936Z,27.50
2018-05-15T10:51:43.819Z,27.72
2018-05-15T10:52:43.808Z,27.80
2018-05-15T10:53:43.797Z,28.20
2018-05-15T10:54:43.801Z,27.50
2018-05-15T10:55:43.777Z,27.16
2018-05-15T10:56:43.767Z,26.88
2018-05-15T10:57:43.756Z,27.27
2018-05-15T10:58:43.747Z,27.81
2018-05-15T10:59:43.737Z,27.38
2018-05-15T11:00:43.728Z,27.61
2018-05-15T11:01:43.746Z,28.48
2018-05-15T11:02:43.709Z,28.94
2018-05-15T11:03:43.696Z,28.18
2018-05-15T11:04:43.693Z,28.46
2018-05-15T11:05:43.676Z,27.77
2018-05-15T11:06:43.667Z,27.80
2018-05-15T11:07:43.657Z,28.23
2018-05-15T11:08:43.654Z,28.85
2018-05-15T11:09:43.644Z,28.48
2018-05-15T11:10:43.632Z,27.78
2018-05-15T11:11:43.620Z,27.24
2018-05-15T11:12:43.625Z,27.12
2018-05-15T11:13:43.601Z,27.42
2018-05-15T11:14:43.599Z,27.68
2018-05-15T11:15:43.591Z,28.55
2018-05-15T11:16:43.573Z,29.20
2018-05-15T11:17:43.562Z,28.28
2018-05-15T11:18:43.650Z,28.21
2018-05-15T11:19:43.555Z,27.87
2018-05-15T11:20:43.534Z,26.90
2018-05-15T11:21:43.526Z,27.80
2018-05-15T11:22:43.516Z,28.97
2018-05-15T11:23:43.507Z,28.79
2018-05-15T11:24:43.508Z,28.64
2018-05-15T11:25:43.492Z,26.97
2018-05-15T11:26:43.481Z,26.46
2018-05-15T11:27:43.477Z,26.44
2018-05-15T11:28:43.462Z,26.81
2018-05-15T11:29:43.454Z,26.59
2018-05-15T11:30:43.440Z,26.20
2018-05-15T11:31:43.432Z,26.90
2018-05-15T11:32:43.424Z,27.38
2018-05-15T11:33:43.419Z,28.06
2018-05-15T11:34:43.401Z,28.13
2018-05-15T11:35:43.435Z,28.46
2018-05-15T11:36:43.382Z,28.87
2018-05-15T11:37:43.373Z,27.96
2018-05-15T11:38:43.369Z,27.83
2018-05-15T11:39:43.360Z,27.30
2018-05-15T11:40:43.350Z,26.72
2018-05-15T11:41:43.337Z,26.47
2018-05-15T11:42:43.324Z,26.71
2018-05-15T11:43:43.316Z,26.78
2018-05-15T11:44:43.317Z,26.73
2018-05-15T11:45:43.307Z,26.81
2018-05-15T11:46:43.287Z,26.81
2018-05-15T11:47:43.396Z,27.15
2018-05-15T11:48:43.830Z,26.93
2018-05-15T11:49:44.105Z,27.12
2018-05-15T11:50:43.984Z,27.59
2018-05-15T11:51:43.986Z,27.62
2018-05-15T11:52:43.854Z,27.74
2018-05-15T11:53:43.220Z,27.83
2018-05-15T11:54:43.213Z,28.17
2018-05-15T11:55:43.211Z,27.46
2018-05-15T11:56:43.192Z,27.50
2018-05-15T11:57:43.183Z,27.21
2018-05-15T11:58:43.173Z,27.35
2018-05-15T11:59:43.224Z,27.02
2018-05-15T12:00:43.156Z,27.46
2018-05-15T12:01:43.158Z,26.91
2018-05-15T12:02:43.151Z,26.57
2018-05-15T12:03:43.226Z,26.23
2018-05-15T12:04:43.131Z,26.11
2018-05-15T12:05:43.110Z,25.83
2018-05-15T12:06:43.096Z,25.67
2018-05-15T12:07:43.086Z,26.20
2018-05-15T12:08:43.134Z,26.20
2018-05-15T12:09:43.069Z,26.94
2018-05-15T12:10:43.240Z,26.50
2018-05-15T12:11:43.856Z,26.23
2018-05-15T12:12:43.032Z,26.16
2018-05-15T12:13:43.019Z,26.09
2018-05-15T12:14:43.017Z,26.42
2018-05-15T12:15:42.996Z,27.21
2018-05-15T12:16:42.995Z,27.61
2018-05-15T12:17:42.972Z,27.81
2018-05-15T12:18:42.966Z,28.23
2018-05-15T12:19:42.956Z,28.09
2018-05-15T12:20:42.939Z,27.61
2018-05-15T12:21:42.930Z,27.48
2018-05-15T12:22:42.915Z,27.27
2018-05-15T12:23:42.905Z,26.88
2018-05-15T12:24:42.917Z,26.35
2018-05-15T12:25:42.908Z,26.68
2018-05-15T12:26:42.875Z,26.91
2018-05-15T12:27:43.320Z,27.43
2018-05-15T12:28:42.851Z,27.71
2018-05-15T12:29:42.870Z,28.27
2018-05-15T12:30:42.830Z,27.83
2018-05-15T12:31:42.845Z,27.84
2018-05-15T12:32:42.810Z,27.49
2018-05-15T12:33:42.891Z,27.15
2018-05-15T12:34:42.826Z,26.36
2018-05-15T12:35:42.821Z,26.06
2018-05-15T12:36:42.783Z,25.72
2018-05-15T12:37:42.783Z,25.91
2018-05-15T12:38:42.758Z,26.16
2018-05-15T12:39:42.751Z,26.12
2018-05-15T12:40:42.723Z,26.08
2018-05-15T12:41:42.791Z,25.89
2018-05-15T12:42:42.710Z,25.59
2018-05-15T12:43:42.697Z,25.71
2018-05-15T12:44:42.688Z,26.09
2018-05-15T12:45:42.681Z,26.19
2018-05-15T12:46:42.751Z,26.09
2018-05-15T12:47:42.704Z,25.93
2018-05-15T12:48:42.730Z,25.12
2018-05-15T12:49:42.820Z,25.08
2018-05-15T12:50:42.817Z,25.44
2018-05-15T12:51:42.794Z,25.23
2018-05-15T12:52:42.787Z,25.83
2018-05-15T12:53:42.565Z,26.24
2018-05-15T12:54:42.557Z,26.81